sensor_id;sensor_type;location;lat;lon;timestamp;P1;durP1;ratioP1;P2;durP2;ratioP2
13208;SDS011;6669;42.678;23.332;2023-03-26T00:01:29;0.33;;;0.33;;
13208;SDS011;6669;42.678;23.332;2023-03-26T00:03:59;0.50;;;0.50;;
13208;SDS011;6669;42.678;23.332;2023-03-26T00:06:29;1.27;;;0.60;;
13208;SDS011;6669;42.678;23.332;2023-03-26T00:09:00;0.30;;;0.30;;
13208;SDS011;6669;42.678;23.332;2023-03-26T00:11:29;0.67;;;0.47;;
13208;SDS011;6669;42.678;23.332;2023-03-26T00:13:58;0.50;;;0.50;;
13208;SDS011;6669;42.678;23.332;2023-03-26T00:16:28;0.37;;;0.37;;
13208;SDS011;6669;42.678;23.332;2023-03-26T00:18:58;0.30;;;0.30;;
13208;SDS011;6669;42.678;23.332;2023-03-26T00:21:28;0.27;;;0.27;;
13208;SDS011;6669;42.678;23.332;2023-03-26T00:23:58;0.50;;;0.50;;
13208;SDS011;6669;42.678;23.332;2023-03-26T00:26:30;0.17;;;0.17;;
13208;SDS011;6669;42.678;23.332;2023-03-26T00:28:59;0.30;;;0.30;;
13208;SDS011;6669;42.678;23.332;2023-03-26T00:31:29;0.43;;;0.43;;
13208;SDS011;6669;42.678;23.332;2023-03-26T00:33:57;0.20;;;0.20;;
13208;SDS011;6669;42.678;23.332;2023-03-26T00:36:30;0.30;;;0.30;;
13208;SDS011;6669;42.678;23.332;2023-03-26T00:39:01;0.43;;;0.43;;
13208;SDS011;6669;42.678;23.332;2023-03-26T00:41:31;0.33;;;0.33;;
13208;SDS011;6669;42.678;23.332;2023-03-26T00:44:02;0.33;;;0.30;;
13208;SDS011;6669;42.678;23.332;2023-03-26T00:46:31;0.40;;;0.40;;
13208;SDS011;6669;42.678;23.332;2023-03-26T00:48:59;0.30;;;0.30;;
13208;SDS011;6669;42.678;23.332;2023-03-26T00:51:30;0.30;;;0.30;;
13208;SDS011;6669;42.678;23.332;2023-03-26T00:53:59;0.13;;;0.13;;
13208;SDS011;6669;42.678;23.332;2023-03-26T00:56:27;0.40;;;0.40;;
13208;SDS011;6669;42.678;23.332;2023-03-26T00:58:58;0.20;;;0.20;;
13208;SDS011;6669;42.678;23.332;2023-03-26T01:01:27;0.40;;;0.37;;
13208;SDS011;6669;42.678;23.332;2023-03-26T01:03:58;0.43;;;0.30;;
13208;SDS011;6669;42.678;23.332;2023-03-26T01:07:00;0.17;;;0.17;;
13208;SDS011;6669;42.678;23.332;2023-03-26T01:09:32;0.40;;;0.40;;
13208;SDS011;6669;42.678;23.332;2023-03-26T01:12:09;0.47;;;0.47;;
13208;SDS011;6669;42.678;23.332;2023-03-26T01:14:41;0.23;;;0.20;;
13208;SDS011;6669;42.678;23.332;2023-03-26T01:17:09;0.70;;;0.43;;
13208;SDS011;6669;42.678;23.332;2023-03-26T01:19:40;0.63;;;0.50;;
13208;SDS011;6669;42.678;23.332;2023-03-26T01:22:18;0.20;;;0.20;;
13208;SDS011;6669;42.678;23.332;2023-03-26T01:24:49;0.30;;;0.30;;
13208;SDS011;6669;42.678;23.332;2023-03-26T01:27:26;0.80;;;0.40;;
13208;SDS011;6669;42.678;23.332;2023-03-26T01:30:04;0.57;;;0.43;;
13208;SDS011;6669;42.678;23.332;2023-03-26T01:32:47;0.40;;;0.40;;
13208;SDS011;6669;42.678;23.332;2023-03-26T01:35:28;0.43;;;0.43;;
13208;SDS011;6669;42.678;23.332;2023-03-26T01:38:05;1.23;;;0.57;;
13208;SDS011;6669;42.678;23.332;2023-03-26T01:40:51;0.93;;;0.57;;
13208;SDS011;6669;42.678;23.332;2023-03-26T01:43:27;0.60;;;0.60;;
13208;SDS011;6669;42.678;23.332;2023-03-26T01:46:01;0.53;;;0.53;;
13208;SDS011;6669;42.678;23.332;2023-03-26T01:48:33;0.60;;;0.60;;
13208;SDS011;6669;42.678;23.332;2023-03-26T01:51:03;1.40;;;0.93;;
13208;SDS011;6669;42.678;23.332;2023-03-26T01:53:34;0.90;;;0.90;;
13208;SDS011;6669;42.678;23.332;2023-03-26T01:56:09;0.87;;;0.70;;
13208;SDS011;6669;42.678;23.332;2023-03-26T01:58:47;0.53;;;0.53;;
13208;SDS011;6669;42.678;23.332;2023-03-26T02:01:28;0.40;;;0.40;;
13208;SDS011;6669;42.678;23.332;2023-03-26T02:04:04;0.40;;;0.40;;
13208;SDS011;6669;42.678;23.332;2023-03-26T02:06:38;0.60;;;0.60;;
13208;SDS011;6669;42.678;23.332;2023-03-26T02:09:12;0.57;;;0.57;;
13208;SDS011;6669;42.678;23.332;2023-03-26T02:11:45;0.73;;;0.50;;
13208;SDS011;6669;42.678;23.332;2023-03-26T02:14:15;0.70;;;0.70;;
13208;SDS011;6669;42.678;23.332;2023-03-26T02:16:43;0.60;;;0.60;;
13208;SDS011;6669;42.678;23.332;2023-03-26T02:19:13;0.80;;;0.80;;
13208;SDS011;6669;42.678;23.332;2023-03-26T02:21:47;1.30;;;0.83;;
13208;SDS011;6669;42.678;23.332;2023-03-26T02:24:16;0.83;;;0.77;;
13208;SDS011;6669;42.678;23.332;2023-03-26T02:26:46;0.60;;;0.60;;
13208;SDS011;6669;42.678;23.332;2023-03-26T02:29:14;0.60;;;0.60;;
13208;SDS011;6669;42.678;23.332;2023-03-26T02:31:46;0.70;;;0.70;;
13208;SDS011;6669;42.678;23.332;2023-03-26T02:34:15;1.03;;;0.97;;
13208;SDS011;6669;42.678;23.332;2023-03-26T02:36:43;0.87;;;0.87;;
13208;SDS011;6669;42.678;23.332;2023-03-26T02:39:12;0.87;;;0.87;;
13208;SDS011;6669;42.678;23.332;2023-03-26T02:41:40;0.90;;;0.90;;
13208;SDS011;6669;42.678;23.332;2023-03-26T02:44:10;0.80;;;0.80;;
13208;SDS011;6669;42.678;23.332;2023-03-26T02:46:38;0.80;;;0.80;;
13208;SDS011;6669;42.678;23.332;2023-03-26T02:49:06;0.97;;;0.90;;
13208;SDS011;6669;42.678;23.332;2023-03-26T02:51:34;0.70;;;0.70;;
13208;SDS011;6669;42.678;23.332;2023-03-26T02:54:03;0.83;;;0.80;;
13208;SDS011;6669;42.678;23.332;2023-03-26T02:56:32;0.77;;;0.77;;
13208;SDS011;6669;42.678;23.332;2023-03-26T02:59:01;0.80;;;0.80;;
13208;SDS011;6669;42.678;23.332;2023-03-26T03:01:30;0.63;;;0.63;;
13208;SDS011;6669;42.678;23.332;2023-03-26T03:04:01;0.70;;;0.67;;
13208;SDS011;6669;42.678;23.332;2023-03-26T03:06:29;0.93;;;0.70;;
13208;SDS011;6669;42.678;23.332;2023-03-26T03:08:57;0.60;;;0.60;;
13208;SDS011;6669;42.678;23.332;2023-03-26T03:11:28;1.10;;;1.00;;
13208;SDS011;6669;42.678;23.332;2023-03-26T03:13:56;0.83;;;0.83;;
13208;SDS011;6669;42.678;23.332;2023-03-26T03:16:24;1.10;;;1.00;;
13208;SDS011;6669;42.678;23.332;2023-03-26T03:18:54;0.80;;;0.80;;
13208;SDS011;6669;42.678;23.332;2023-03-26T03:21:24;1.00;;;1.00;;
13208;SDS011;6669;42.678;23.332;2023-03-26T03:23:53;1.00;;;1.00;;
13208;SDS011;6669;42.678;23.332;2023-03-26T03:26:28;1.00;;;1.00;;
13208;SDS011;6669;42.678;23.332;2023-03-26T03:28:56;1.20;;;1.10;;
13208;SDS011;6669;42.678;23.332;2023-03-26T03:31:25;1.10;;;1.10;;
13208;SDS011;6669;42.678;23.332;2023-03-26T03:33:55;1.40;;;1.30;;
13208;SDS011;6669;42.678;23.332;2023-03-26T03:36:23;1.47;;;1.37;;
13208;SDS011;6669;42.678;23.332;2023-03-26T03:38:53;1.53;;;1.43;;
13208;SDS011;6669;42.678;23.332;2023-03-26T03:41:21;1.73;;;1.30;;
13208;SDS011;6669;42.678;23.332;2023-03-26T03:43:49;1.53;;;1.43;;
13208;SDS011;6669;42.678;23.332;2023-03-26T03:46:17;1.37;;;1.27;;
13208;SDS011;6669;42.678;23.332;2023-03-26T03:48:45;1.30;;;1.20;;
13208;SDS011;6669;42.678;23.332;2023-03-26T03:51:16;1.57;;;1.47;;
13208;SDS011;6669;42.678;23.332;2023-03-26T03:53:45;1.60;;;1.50;;
13208;SDS011;6669;42.678;23.332;2023-03-26T03:56:13;1.50;;;1.40;;
13208;SDS011;6669;42.678;23.332;2023-03-26T03:58:44;1.70;;;1.60;;
13208;SDS011;6669;42.678;23.332;2023-03-26T04:01:12;1.60;;;1.50;;
13208;SDS011;6669;42.678;23.332;2023-03-26T04:03:42;1.80;;;1.70;;
13208;SDS011;6669;42.678;23.332;2023-03-26T04:06:12;1.80;;;1.70;;
13208;SDS011;6669;42.678;23.332;2023-03-26T04:08:46;2.13;;;1.70;;
13208;SDS011;6669;42.678;23.332;2023-03-26T04:11:14;1.60;;;1.50;;
13208;SDS011;6669;42.678;23.332;2023-03-26T04:13:42;1.70;;;1.60;;
13208;SDS011;6669;42.678;23.332;2023-03-26T04:16:10;2.83;;;1.77;;
13208;SDS011;6669;42.678;23.332;2023-03-26T04:18:38;1.90;;;1.80;;
13208;SDS011;6669;42.678;23.332;2023-03-26T04:21:06;2.00;;;1.80;;
13208;SDS011;6669;42.678;23.332;2023-03-26T04:23:38;2.30;;;2.10;;
13208;SDS011;6669;42.678;23.332;2023-03-26T04:26:10;2.13;;;1.90;;
13208;SDS011;6669;42.678;23.332;2023-03-26T04:28:43;2.60;;;2.40;;
13208;SDS011;6669;42.678;23.332;2023-03-26T04:31:14;2.50;;;2.30;;
13208;SDS011;6669;42.678;23.332;2023-03-26T04:33:50;3.43;;;2.20;;
13208;SDS011;6669;42.678;23.332;2023-03-26T04:36:21;2.80;;;2.60;;
13208;SDS011;6669;42.678;23.332;2023-03-26T04:38:53;2.63;;;2.43;;
13208;SDS011;6669;42.678;23.332;2023-03-26T04:41:29;3.37;;;2.00;;
13208;SDS011;6669;42.678;23.332;2023-03-26T04:43:58;2.37;;;2.17;;
13208;SDS011;6669;42.678;23.332;2023-03-26T04:46:27;2.60;;;2.40;;
13208;SDS011;6669;42.678;23.332;2023-03-26T04:48:59;1.80;;;1.70;;
13208;SDS011;6669;42.678;23.332;2023-03-26T04:51:29;2.23;;;2.10;;
13208;SDS011;6669;42.678;23.332;2023-03-26T04:54:04;2.03;;;1.83;;
13208;SDS011;6669;42.678;23.332;2023-03-26T04:56:37;2.50;;;2.30;;
13208;SDS011;6669;42.678;23.332;2023-03-26T04:59:12;2.93;;;2.40;;
13208;SDS011;6669;42.678;23.332;2023-03-26T05:01:51;2.30;;;2.00;;
13208;SDS011;6669;42.678;23.332;2023-03-26T05:04:19;2.43;;;2.20;;
13208;SDS011;6669;42.678;23.332;2023-03-26T05:06:47;2.70;;;2.50;;
13208;SDS011;6669;42.678;23.332;2023-03-26T05:09:17;2.70;;;2.50;;
13208;SDS011;6669;42.678;23.332;2023-03-26T05:11:47;2.73;;;2.53;;
13208;SDS011;6669;42.678;23.332;2023-03-26T05:14:16;2.93;;;2.60;;
13208;SDS011;6669;42.678;23.332;2023-03-26T05:16:45;2.60;;;2.40;;
13208;SDS011;6669;42.678;23.332;2023-03-26T05:19:15;6.13;;;2.90;;
13208;SDS011;6669;42.678;23.332;2023-03-26T05:21:43;3.47;;;3.00;;
13208;SDS011;6669;42.678;23.332;2023-03-26T05:24:12;4.33;;;3.10;;
13208;SDS011;6669;42.678;23.332;2023-03-26T05:26:40;3.50;;;3.20;;
13208;SDS011;6669;42.678;23.332;2023-03-26T05:29:09;4.03;;;3.63;;
13208;SDS011;6669;42.678;23.332;2023-03-26T05:31:44;4.07;;;3.70;;
13208;SDS011;6669;42.678;23.332;2023-03-26T05:34:13;3.80;;;3.50;;
13208;SDS011;6669;42.678;23.332;2023-03-26T05:36:42;4.10;;;3.70;;
13208;SDS011;6669;42.678;23.332;2023-03-26T05:39:20;4.27;;;3.67;;
13208;SDS011;6669;42.678;23.332;2023-03-26T05:41:52;3.20;;;2.90;;
13208;SDS011;6669;42.678;23.332;2023-03-26T05:44:24;4.00;;;3.60;;
13208;SDS011;6669;42.678;23.332;2023-03-26T05:46:52;4.57;;;3.70;;
13208;SDS011;6669;42.678;23.332;2023-03-26T05:49:21;4.53;;;4.10;;
13208;SDS011;6669;42.678;23.332;2023-03-26T05:51:51;4.53;;;4.00;;
13208;SDS011;6669;42.678;23.332;2023-03-26T05:54:21;4.90;;;4.40;;
13208;SDS011;6669;42.678;23.332;2023-03-26T05:56:49;4.27;;;3.87;;
13208;SDS011;6669;42.678;23.332;2023-03-26T05:59:22;3.97;;;3.63;;
13208;SDS011;6669;42.678;23.332;2023-03-26T06:01:57;4.33;;;3.47;;
13208;SDS011;6669;42.678;23.332;2023-03-26T06:04:29;4.50;;;4.10;;
13208;SDS011;6669;42.678;23.332;2023-03-26T06:07:11;3.73;;;3.43;;
13208;SDS011;6669;42.678;23.332;2023-03-26T06:09:40;3.63;;;3.30;;
13208;SDS011;6669;42.678;23.332;2023-03-26T06:12:09;3.40;;;3.10;;
13208;SDS011;6669;42.678;23.332;2023-03-26T06:14:37;3.03;;;2.73;;
13208;SDS011;6669;42.678;23.332;2023-03-26T06:17:11;3.60;;;3.20;;
13208;SDS011;6669;42.678;23.332;2023-03-26T06:19:40;3.27;;;2.97;;
13208;SDS011;6669;42.678;23.332;2023-03-26T06:22:08;3.40;;;3.10;;
13208;SDS011;6669;42.678;23.332;2023-03-26T06:24:38;3.73;;;3.43;;
13208;SDS011;6669;42.678;23.332;2023-03-26T06:27:08;3.83;;;3.23;;
13208;SDS011;6669;42.678;23.332;2023-03-26T06:29:39;3.33;;;3.03;;
13208;SDS011;6669;42.678;23.332;2023-03-26T06:32:07;3.70;;;3.30;;
13208;SDS011;6669;42.678;23.332;2023-03-26T06:34:47;4.43;;;3.47;;
13208;SDS011;6669;42.678;23.332;2023-03-26T06:37:15;4.03;;;3.73;;
13208;SDS011;6669;42.678;23.332;2023-03-26T06:39:52;3.73;;;3.43;;
13208;SDS011;6669;42.678;23.332;2023-03-26T06:42:25;4.47;;;4.07;;
13208;SDS011;6669;42.678;23.332;2023-03-26T06:45:13;4.53;;;3.70;;
13208;SDS011;6669;42.678;23.332;2023-03-26T06:47:41;3.70;;;3.40;;
13208;SDS011;6669;42.678;23.332;2023-03-26T06:50:11;4.40;;;3.37;;
13208;SDS011;6669;42.678;23.332;2023-03-26T06:52:39;3.53;;;3.23;;
13208;SDS011;6669;42.678;23.332;2023-03-26T06:55:08;3.40;;;3.10;;
13208;SDS011;6669;42.678;23.332;2023-03-26T06:57:38;3.77;;;3.40;;
13208;SDS011;6669;42.678;23.332;2023-03-26T07:00:11;2.80;;;2.60;;
13208;SDS011;6669;42.678;23.332;2023-03-26T07:02:40;4.40;;;3.17;;
13208;SDS011;6669;42.678;23.332;2023-03-26T07:05:08;3.50;;;3.20;;
13208;SDS011;6669;42.678;23.332;2023-03-26T07:07:39;3.53;;;2.70;;
13208;SDS011;6669;42.678;23.332;2023-03-26T07:10:12;3.37;;;3.07;;
13208;SDS011;6669;42.678;23.332;2023-03-26T07:12:43;3.77;;;3.47;;
13208;SDS011;6669;42.678;23.332;2023-03-26T07:15:13;4.13;;;3.73;;
13208;SDS011;6669;42.678;23.332;2023-03-26T07:17:41;3.40;;;2.97;;
13208;SDS011;6669;42.678;23.332;2023-03-26T07:20:09;3.67;;;3.10;;
13208;SDS011;6669;42.678;23.332;2023-03-26T07:22:41;3.87;;;3.50;;
13208;SDS011;6669;42.678;23.332;2023-03-26T07:25:11;4.23;;;3.73;;
13208;SDS011;6669;42.678;23.332;2023-03-26T07:27:44;5.50;;;3.50;;
13208;SDS011;6669;42.678;23.332;2023-03-26T07:30:23;4.00;;;3.70;;
13208;SDS011;6669;42.678;23.332;2023-03-26T07:32:57;3.87;;;3.47;;
13208;SDS011;6669;42.678;23.332;2023-03-26T07:35:29;3.00;;;2.70;;
13208;SDS011;6669;42.678;23.332;2023-03-26T07:41:03;3.37;;;3.07;;
13208;SDS011;6669;42.678;23.332;2023-03-26T07:43:52;3.53;;;3.20;;
13208;SDS011;6669;42.678;23.332;2023-03-26T07:46:31;3.90;;;3.60;;
13208;SDS011;6669;42.678;23.332;2023-03-26T07:49:02;3.70;;;3.40;;
13208;SDS011;6669;42.678;23.332;2023-03-26T07:51:32;3.80;;;3.23;;
13208;SDS011;6669;42.678;23.332;2023-03-26T07:54:02;3.43;;;3.13;;
13208;SDS011;6669;42.678;23.332;2023-03-26T07:56:32;3.50;;;3.00;;
13208;SDS011;6669;42.678;23.332;2023-03-26T07:59:07;3.30;;;2.90;;
13208;SDS011;6669;42.678;23.332;2023-03-26T08:01:46;3.30;;;3.00;;
13208;SDS011;6669;42.678;23.332;2023-03-26T08:04:38;4.47;;;4.07;;
13208;SDS011;6669;42.678;23.332;2023-03-26T08:07:23;4.30;;;3.60;;
13208;SDS011;6669;42.678;23.332;2023-03-26T08:10:05;5.07;;;2.90;;
13208;SDS011;6669;42.678;23.332;2023-03-26T08:12:40;3.33;;;2.50;;
13208;SDS011;6669;42.678;23.332;2023-03-26T08:15:17;2.30;;;2.10;;
13208;SDS011;6669;42.678;23.332;2023-03-26T08:17:57;2.42;;;2.22;;
13208;SDS011;6669;42.678;23.332;2023-03-26T08:20:31;2.45;;;2.25;;
13208;SDS011;6669;42.678;23.332;2023-03-26T08:23:07;2.20;;;2.00;;
13208;SDS011;6669;42.678;23.332;2023-03-26T08:25:48;2.50;;;2.30;;
13208;SDS011;6669;42.678;23.332;2023-03-26T08:28:27;2.75;;;2.33;;
13208;SDS011;6669;42.678;23.332;2023-03-26T08:31:05;3.27;;;2.30;;
13208;SDS011;6669;42.678;23.332;2023-03-26T08:33:36;3.00;;;2.40;;
13208;SDS011;6669;42.678;23.332;2023-03-26T08:36:06;2.30;;;2.10;;
13208;SDS011;6669;42.678;23.332;2023-03-26T08:38:35;2.30;;;2.00;;
13208;SDS011;6669;42.678;23.332;2023-03-26T08:44:20;2.40;;;2.20;;
13208;SDS011;6669;42.678;23.332;2023-03-26T08:50:35;1.88;;;1.77;;
13208;SDS011;6669;42.678;23.332;2023-03-26T08:56:46;2.95;;;2.28;;
13208;SDS011;6669;42.678;23.332;2023-03-26T09:02:33;2.40;;;2.20;;
13208;SDS011;6669;42.678;23.332;2023-03-26T09:05:21;2.00;;;1.80;;
13208;SDS011;6669;42.678;23.332;2023-03-26T09:11:42;2.05;;;1.85;;
13208;SDS011;6669;42.678;23.332;2023-03-26T09:14:42;2.53;;;1.90;;
13208;SDS011;6669;42.678;23.332;2023-03-26T09:18:03;1.88;;;1.50;;
13208;SDS011;6669;42.678;23.332;2023-03-26T09:21:13;1.70;;;1.60;;
13208;SDS011;6669;42.678;23.332;2023-03-26T09:27:35;2.10;;;1.60;;
13208;SDS011;6669;42.678;23.332;2023-03-26T09:33:20;2.03;;;1.83;;
13208;SDS011;6669;42.678;23.332;2023-03-26T09:36:05;1.33;;;1.23;;
13208;SDS011;6669;42.678;23.332;2023-03-26T09:38:51;1.70;;;1.60;;
13208;SDS011;6669;42.678;23.332;2023-03-26T09:41:24;1.50;;;1.40;;
13208;SDS011;6669;42.678;23.332;2023-03-26T09:47:22;1.58;;;1.48;;
13208;SDS011;6669;42.678;23.332;2023-03-26T09:50:01;1.70;;;1.60;;
13208;SDS011;6669;42.678;23.332;2023-03-26T09:52:46;1.40;;;1.30;;
13208;SDS011;6669;42.678;23.332;2023-03-26T09:55:37;1.98;;;1.05;;
13208;SDS011;6669;42.678;23.332;2023-03-26T09:58:19;1.40;;;1.30;;
13208;SDS011;6669;42.678;23.332;2023-03-26T10:00:59;1.35;;;1.25;;
13208;SDS011;6669;42.678;23.332;2023-03-26T10:03:39;1.10;;;1.10;;
13208;SDS011;6669;42.678;23.332;2023-03-26T10:06:22;1.40;;;1.30;;
13208;SDS011;6669;42.678;23.332;2023-03-26T10:12:05;1.63;;;1.20;;
13208;SDS011;6669;42.678;23.332;2023-03-26T10:14:47;0.98;;;0.88;;
13208;SDS011;6669;42.678;23.332;2023-03-26T10:17:32;1.45;;;1.35;;
13208;SDS011;6669;42.678;23.332;2023-03-26T10:20:18;1.20;;;1.10;;
13208;SDS011;6669;42.678;23.332;2023-03-26T10:23:03;1.88;;;1.02;;
13208;SDS011;6669;42.678;23.332;2023-03-26T10:25:52;0.70;;;0.70;;
13208;SDS011;6669;42.678;23.332;2023-03-26T10:28:37;1.10;;;0.82;;
13208;SDS011;6669;42.678;23.332;2023-03-26T10:31:32;0.80;;;0.80;;
13208;SDS011;6669;42.678;23.332;2023-03-26T10:37:07;0.70;;;0.70;;
13208;SDS011;6669;42.678;23.332;2023-03-26T10:39:46;0.95;;;0.95;;
13208;SDS011;6669;42.678;23.332;2023-03-26T10:42:36;1.73;;;1.55;;
13208;SDS011;6669;42.678;23.332;2023-03-26T10:45:29;0.88;;;0.88;;
13208;SDS011;6669;42.678;23.332;2023-03-26T10:51:29;0.75;;;0.75;;
13208;SDS011;6669;42.678;23.332;2023-03-26T10:54:10;0.93;;;0.80;;
13208;SDS011;6669;42.678;23.332;2023-03-26T10:56:48;0.75;;;0.75;;
13208;SDS011;6669;42.678;23.332;2023-03-26T10:59:17;0.75;;;0.75;;
13208;SDS011;6669;42.678;23.332;2023-03-26T11:01:45;0.57;;;0.57;;
13208;SDS011;6669;42.678;23.332;2023-03-26T11:04:23;0.85;;;0.60;;
13208;SDS011;6669;42.678;23.332;2023-03-26T11:07:05;0.82;;;0.82;;
13208;SDS011;6669;42.678;23.332;2023-03-26T11:09:46;0.90;;;0.80;;
13208;SDS011;6669;42.678;23.332;2023-03-26T11:12:21;0.88;;;0.70;;
13208;SDS011;6669;42.678;23.332;2023-03-26T11:14:58;0.60;;;0.60;;
13208;SDS011;6669;42.678;23.332;2023-03-26T11:17:39;0.80;;;0.68;;
13208;SDS011;6669;42.678;23.332;2023-03-26T11:20:15;0.75;;;0.52;;
13208;SDS011;6669;42.678;23.332;2023-03-26T11:22:49;0.60;;;0.60;;
13208;SDS011;6669;42.678;23.332;2023-03-26T11:25:33;0.75;;;0.75;;
13208;SDS011;6669;42.678;23.332;2023-03-26T11:28:18;0.57;;;0.52;;
13208;SDS011;6669;42.678;23.332;2023-03-26T11:30:58;0.40;;;0.40;;
13208;SDS011;6669;42.678;23.332;2023-03-26T11:33:36;0.50;;;0.40;;
13208;SDS011;6669;42.678;23.332;2023-03-26T11:36:15;0.73;;;0.73;;
13208;SDS011;6669;42.678;23.332;2023-03-26T11:38:48;1.20;;;0.80;;
13208;SDS011;6669;42.678;23.332;2023-03-26T11:41:19;3.17;;;1.98;;
13208;SDS011;6669;42.678;23.332;2023-03-26T11:43:51;0.75;;;0.70;;
13208;SDS011;6669;42.678;23.332;2023-03-26T11:46:24;2.50;;;0.70;;
13208;SDS011;6669;42.678;23.332;2023-03-26T11:48:54;0.85;;;0.57;;
13208;SDS011;6669;42.678;23.332;2023-03-26T11:51:26;0.60;;;0.60;;
13208;SDS011;6669;42.678;23.332;2023-03-26T11:53:58;0.70;;;0.55;;
13208;SDS011;6669;42.678;23.332;2023-03-26T11:56:27;0.45;;;0.45;;
13208;SDS011;6669;42.678;23.332;2023-03-26T11:59:01;1.60;;;0.55;;
13208;SDS011;6669;42.678;23.332;2023-03-26T12:04:24;1.35;;;0.75;;
13208;SDS011;6669;42.678;23.332;2023-03-26T12:07:05;0.60;;;0.60;;
13208;SDS011;6669;42.678;23.332;2023-03-26T12:09:36;0.90;;;0.68;;
13208;SDS011;6669;42.678;23.332;2023-03-26T12:12:04;0.63;;;0.63;;
13208;SDS011;6669;42.678;23.332;2023-03-26T12:14:34;0.80;;;0.80;;
13208;SDS011;6669;42.678;23.332;2023-03-26T12:17:03;0.50;;;0.43;;
13208;SDS011;6669;42.678;23.332;2023-03-26T12:19:42;0.60;;;0.60;;
13208;SDS011;6669;42.678;23.332;2023-03-26T12:25:11;0.40;;;0.40;;
13208;SDS011;6669;42.678;23.332;2023-03-26T12:27:42;0.52;;;0.52;;
13208;SDS011;6669;42.678;23.332;2023-03-26T12:30:19;0.60;;;0.60;;
13208;SDS011;6669;42.678;23.332;2023-03-26T12:32:48;0.50;;;0.50;;
13208;SDS011;6669;42.678;23.332;2023-03-26T12:35:21;0.82;;;0.82;;
13208;SDS011;6669;42.678;23.332;2023-03-26T12:37:53;0.47;;;0.40;;
13208;SDS011;6669;42.678;23.332;2023-03-26T12:40:28;0.40;;;0.40;;
13208;SDS011;6669;42.678;23.332;2023-03-26T12:42:59;1.00;;;0.57;;
13208;SDS011;6669;42.678;23.332;2023-03-26T12:45:53;0.80;;;0.63;;
13208;SDS011;6669;42.678;23.332;2023-03-26T12:48:44;0.43;;;0.30;;
13208;SDS011;6669;42.678;23.332;2023-03-26T12:51:14;0.65;;;0.60;;
13208;SDS011;6669;42.678;23.332;2023-03-26T12:53:51;0.70;;;0.30;;
13208;SDS011;6669;42.678;23.332;2023-03-26T12:56:34;0.40;;;0.30;;
13208;SDS011;6669;42.678;23.332;2023-03-26T12:59:25;0.40;;;0.40;;
13208;SDS011;6669;42.678;23.332;2023-03-26T13:02:07;0.30;;;0.30;;
13208;SDS011;6669;42.678;23.332;2023-03-26T13:04:57;1.35;;;0.60;;
13208;SDS011;6669;42.678;23.332;2023-03-26T13:07:42;0.47;;;0.43;;
13208;SDS011;6669;42.678;23.332;2023-03-26T13:13:09;0.22;;;0.22;;
13208;SDS011;6669;42.678;23.332;2023-03-26T13:15:58;0.40;;;0.30;;
13208;SDS011;6669;42.678;23.332;2023-03-26T13:18:36;0.40;;;0.40;;
13208;SDS011;6669;42.678;23.332;2023-03-26T13:21:15;0.95;;;0.90;;
13208;SDS011;6669;42.678;23.332;2023-03-26T13:23:50;0.40;;;0.40;;
13208;SDS011;6669;42.678;23.332;2023-03-26T13:26:30;0.77;;;0.35;;
13208;SDS011;6669;42.678;23.332;2023-03-26T13:29:17;0.30;;;0.30;;
13208;SDS011;6669;42.678;23.332;2023-03-26T13:31:51;0.20;;;0.20;;
13208;SDS011;6669;42.678;23.332;2023-03-26T13:34:28;0.43;;;0.40;;
13208;SDS011;6669;42.678;23.332;2023-03-26T13:37:05;0.50;;;0.47;;
13208;SDS011;6669;42.678;23.332;2023-03-26T13:39:41;1.13;;;0.40;;
13208;SDS011;6669;42.678;23.332;2023-03-26T13:42:24;0.20;;;0.20;;
13208;SDS011;6669;42.678;23.332;2023-03-26T13:45:11;0.40;;;0.40;;
13208;SDS011;6669;42.678;23.332;2023-03-26T13:47:53;0.80;;;0.47;;
13208;SDS011;6669;42.678;23.332;2023-03-26T13:50:26;0.30;;;0.30;;
13208;SDS011;6669;42.678;23.332;2023-03-26T13:52:57;0.65;;;0.35;;
13208;SDS011;6669;42.678;23.332;2023-03-26T13:55:31;2.47;;;0.80;;
13208;SDS011;6669;42.678;23.332;2023-03-26T13:58:04;0.50;;;0.47;;
13208;SDS011;6669;42.678;23.332;2023-03-26T14:00:46;1.17;;;0.60;;
13208;SDS011;6669;42.678;23.332;2023-03-26T14:03:23;0.50;;;0.50;;
13208;SDS011;6669;42.678;23.332;2023-03-26T14:05:58;1.05;;;0.47;;
13208;SDS011;6669;42.678;23.332;2023-03-26T14:08:31;0.32;;;0.30;;
13208;SDS011;6669;42.678;23.332;2023-03-26T14:11:05;0.43;;;0.28;;
13208;SDS011;6669;42.678;23.332;2023-03-26T14:13:39;0.52;;;0.40;;
13208;SDS011;6669;42.678;23.332;2023-03-26T14:16:12;0.63;;;0.52;;
13208;SDS011;6669;42.678;23.332;2023-03-26T14:18:46;0.35;;;0.30;;
13208;SDS011;6669;42.678;23.332;2023-03-26T14:21:35;2.70;;;0.73;;
13208;SDS011;6669;42.678;23.332;2023-03-26T14:24:22;0.95;;;0.60;;
13208;SDS011;6669;42.678;23.332;2023-03-26T14:30:23;0.70;;;0.47;;
13208;SDS011;6669;42.678;23.332;2023-03-26T14:33:10;0.47;;;0.47;;
13208;SDS011;6669;42.678;23.332;2023-03-26T14:35:56;0.80;;;0.57;;
13208;SDS011;6669;42.678;23.332;2023-03-26T14:41:26;1.15;;;1.02;;
13208;SDS011;6669;42.678;23.332;2023-03-26T14:44:04;0.68;;;0.55;;
13208;SDS011;6669;42.678;23.332;2023-03-26T14:46:55;0.50;;;0.50;;
13208;SDS011;6669;42.678;23.332;2023-03-26T14:49:49;0.90;;;0.70;;
13208;SDS011;6669;42.678;23.332;2023-03-26T14:52:37;0.63;;;0.40;;
13208;SDS011;6669;42.678;23.332;2023-03-26T14:55:15;0.88;;;0.40;;
13208;SDS011;6669;42.678;23.332;2023-03-26T14:57:59;1.02;;;0.55;;
13208;SDS011;6669;42.678;23.332;2023-03-26T15:01:03;0.52;;;0.52;;
13208;SDS011;6669;42.678;23.332;2023-03-26T15:13:18;0.30;;;0.30;;
13208;SDS011;6669;42.678;23.332;2023-03-26T15:16:11;0.85;;;0.60;;
13208;SDS011;6669;42.678;23.332;2023-03-26T15:28:51;0.73;;;0.70;;
13208;SDS011;6669;42.678;23.332;2023-03-26T15:31:36;0.85;;;0.85;;
13208;SDS011;6669;42.678;23.332;2023-03-26T15:34:26;0.93;;;0.55;;
13208;SDS011;6669;42.678;23.332;2023-03-26T15:37:37;1.15;;;0.80;;
13208;SDS011;6669;42.678;23.332;2023-03-26T15:40:33;0.98;;;0.50;;
13208;SDS011;6669;42.678;23.332;2023-03-26T15:43:10;0.80;;;0.63;;
13208;SDS011;6669;42.678;23.332;2023-03-26T15:45:39;0.93;;;0.90;;
13208;SDS011;6669;42.678;23.332;2023-03-26T15:51:32;0.93;;;0.47;;
13208;SDS011;6669;42.678;23.332;2023-03-26T15:54:19;0.80;;;0.80;;
13208;SDS011;6669;42.678;23.332;2023-03-26T15:56:54;0.90;;;0.70;;
13208;SDS011;6669;42.678;23.332;2023-03-26T15:59:39;5.00;;;4.03;;
13208;SDS011;6669;42.678;23.332;2023-03-26T16:02:19;2.20;;;1.90;;
13208;SDS011;6669;42.678;23.332;2023-03-26T16:04:54;1.65;;;1.10;;
13208;SDS011;6669;42.678;23.332;2023-03-26T16:07:27;0.80;;;0.80;;
13208;SDS011;6669;42.678;23.332;2023-03-26T16:10:17;1.17;;;0.90;;
13208;SDS011;6669;42.678;23.332;2023-03-26T16:19:35;11.20;;;9.05;;
13208;SDS011;6669;42.678;23.332;2023-03-26T16:25:19;0.60;;;0.60;;
13208;SDS011;6669;42.678;23.332;2023-03-26T16:36:55;0.70;;;0.70;;
13208;SDS011;6669;42.678;23.332;2023-03-26T16:39:37;1.20;;;1.00;;
13208;SDS011;6669;42.678;23.332;2023-03-26T16:42:22;1.00;;;0.80;;
13208;SDS011;6669;42.678;23.332;2023-03-26T16:45:01;1.30;;;1.05;;
13208;SDS011;6669;42.678;23.332;2023-03-26T16:47:41;2.17;;;0.90;;
13208;SDS011;6669;42.678;23.332;2023-03-26T16:50:19;1.40;;;1.00;;
13208;SDS011;6669;42.678;23.332;2023-03-26T16:52:57;0.77;;;0.77;;
13208;SDS011;6669;42.678;23.332;2023-03-26T16:55:33;1.63;;;1.27;;
13208;SDS011;6669;42.678;23.332;2023-03-26T16:58:11;1.75;;;1.50;;
13208;SDS011;6669;42.678;23.332;2023-03-26T17:00:45;1.77;;;1.13;;
13208;SDS011;6669;42.678;23.332;2023-03-26T17:03:26;1.85;;;1.27;;
13208;SDS011;6669;42.678;23.332;2023-03-26T17:06:04;1.48;;;0.80;;
13208;SDS011;6669;42.678;23.332;2023-03-26T17:08:55;1.92;;;1.50;;
13208;SDS011;6669;42.678;23.332;2023-03-26T17:11:32;1.60;;;1.20;;
13208;SDS011;6669;42.678;23.332;2023-03-26T17:14:11;1.73;;;1.20;;